RMQ weather

Taichung Ching Chuang Kang Airport
Taichung City, Taichung (city), Taiwan

Public forecast

Using degrees Celsius for public forecast. Weather courtesy of forecast.io.

Current aviation weather report (METAR) for Taichung Ching Chuang Kang Airport

Retrieved 2019/10/23 04:30 UTC (16 minutes ago):

RCMQ 230430Z 36008KT 9999 FEW012 SCT030 29/18 Q1011 NOSIG RMK A2988

Aviation forecast (TAF) for Taichung Ching Chuang Kang Airport

Retrieved 2019-10-23 00:00 UTC (5 hours ago):

TAF RCMQ 222300Z 2300/2324 04004KT 9999 FEW012 BKN050 TX29/2306Z TN19/2221Z BECMG 2301/2304 04008KT FEW012 BECMG 2311/2314 04004KT FEW012 BKN060 BECMG 2320/2314 FEW012 SCT060